createdAt,value
2023-12-24T00:00:27.855Z,99291.34
2023-12-24T00:02:56.700Z,99304.25
2023-12-24T00:05:24.351Z,99294.03
2023-12-24T00:07:51.072Z,99305.66
2023-12-24T00:10:17.718Z,99304.44
2023-12-24T00:12:44.491Z,99305.34
2023-12-24T00:15:11.279Z,99300.53
2023-12-24T00:17:38.146Z,99308.28
2023-12-24T00:20:05.234Z,99311.56
2023-12-24T00:22:32.840Z,99305.66
2023-12-24T00:24:59.490Z,99301.00
2023-12-24T00:27:26.214Z,99296.28
2023-12-24T00:29:52.853Z,99307.03
2023-12-24T00:32:21.105Z,99297.28
2023-12-24T00:34:47.877Z,99301.47
2023-12-24T00:37:14.628Z,99296.97
2023-12-24T00:39:41.292Z,99298.88
2023-12-24T00:42:08.004Z,99297.94
2023-12-24T00:44:34.747Z,99291.41
2023-12-24T00:47:01.475Z,99298.00
2023-12-24T00:49:30.274Z,99286.28
2023-12-24T00:51:58.090Z,99295.75
2023-12-24T00:54:24.815Z,99289.56
2023-12-24T00:56:51.550Z,99304.91
2023-12-24T00:59:18.267Z,99298.38
2023-12-24T01:01:44.971Z,99299.47
2023-12-24T01:04:11.725Z,99309.53
2023-12-24T01:06:38.485Z,99299.78
2023-12-24T01:09:05.137Z,99290.19
2023-12-24T01:11:31.969Z,99299.63
2023-12-24T01:13:59.038Z,99297.47
2023-12-24T01:16:25.801Z,99292.91
2023-12-24T01:18:53.056Z,99301.88
2023-12-24T01:21:19.904Z,99290.31
2023-12-24T01:23:46.607Z,99288.78
2023-12-24T01:26:13.751Z,99298.69
2023-12-24T01:28:41.769Z,99300.06
2023-12-24T01:31:08.760Z,99300.00
2023-12-24T01:33:37.060Z,99303.56
2023-12-24T01:36:03.866Z,99308.00
2023-12-24T01:38:34.338Z,99298.53
2023-12-24T01:41:01.287Z,99312.25
2023-12-24T01:43:27.927Z,99314.78
2023-12-24T01:45:54.950Z,99315.09
2023-12-24T01:48:22.485Z,99297.94
2023-12-24T01:50:49.656Z,99305.66
2023-12-24T01:53:17.547Z,99308.06
2023-12-24T01:55:45.206Z,99304.25
2023-12-24T01:58:11.930Z,99299.00
2023-12-24T02:00:38.897Z,99310.09
2023-12-24T02:03:05.687Z,99315.25
2023-12-24T02:05:32.562Z,99313.72
2023-12-24T02:07:59.905Z,99315.88
2023-12-24T02:10:27.185Z,99321.31
2023-12-24T02:12:54.112Z,99317.03
2023-12-24T02:15:20.910Z,99303.19
2023-12-24T02:17:47.773Z,99318.97
2023-12-24T02:20:14.657Z,99317.06
2023-12-24T02:22:41.325Z,99316.28
2023-12-24T02:25:08.309Z,99312.81
2023-12-24T02:27:40.762Z,99311.94
2023-12-24T02:30:12.075Z,99309.47
2023-12-24T02:32:40.528Z,99308.75
2023-12-24T02:35:08.571Z,99311.16
2023-12-24T02:37:35.868Z,99301.34
2023-12-24T02:40:02.495Z,99301.41
2023-12-24T02:42:29.275Z,99291.59
2023-12-24T02:44:55.979Z,99286.44
2023-12-24T02:47:22.811Z,99291.72
2023-12-24T02:49:50.358Z,99290.72
2023-12-24T02:52:17.075Z,99289.72
2023-12-24T02:54:43.723Z,99286.69
2023-12-24T02:57:10.436Z,99289.03
2023-12-24T02:59:37.180Z,99285.56
2023-12-24T03:02:04.215Z,99282.34
2023-12-24T03:04:30.970Z,99290.50
2023-12-24T03:06:57.670Z,99279.50
2023-12-24T03:09:24.334Z,99269.91
2023-12-24T03:11:51.889Z,99264.03
2023-12-24T03:14:18.583Z,99264.97
2023-12-24T03:16:45.328Z,99272.53
2023-12-24T03:19:12.169Z,99266.56
2023-12-24T03:21:45.108Z,99262.31
2023-12-24T03:24:11.913Z,99267.56
2023-12-24T03:26:38.748Z,99271.44
2023-12-24T03:29:07.536Z,99259.13
2023-12-24T03:31:34.310Z,99265.72
2023-12-24T03:34:01.036Z,99260.47
2023-12-24T03:36:27.734Z,99263.25
2023-12-24T03:38:54.511Z,99255.22
2023-12-24T03:41:21.765Z,99255.66
2023-12-24T03:43:48.483Z,99261.47
2023-12-24T03:46:18.711Z,99258.00
2023-12-24T03:48:45.488Z,99261.38
2023-12-24T03:51:12.678Z,99255.81
2023-12-24T03:53:39.650Z,99265.94
2023-12-24T03:56:06.797Z,99257.44
2023-12-24T03:58:33.534Z,99264.41
2023-12-24T04:01:00.347Z,99267.44
2023-12-24T04:03:27.099Z,99253.56
2023-12-24T04:05:53.828Z,99256.03
2023-12-24T04:08:21.178Z,99254.81
2023-12-24T04:10:47.829Z,99247.28
2023-12-24T04:13:15.229Z,99257.50
2023-12-24T04:15:41.996Z,99264.03
2023-12-24T04:18:10.358Z,99267.09
2023-12-24T04:20:37.409Z,99251.66
2023-12-24T04:23:04.295Z,99255.91
2023-12-24T04:25:31.952Z,99247.75
2023-12-24T04:27:58.636Z,99247.06
2023-12-24T04:30:25.464Z,99253.34
2023-12-24T04:32:52.698Z,99257.91
2023-12-24T04:35:19.602Z,99254.56
2023-12-24T04:37:46.824Z,99242.50
2023-12-24T04:40:13.705Z,99244.81
2023-12-24T04:42:40.458Z,99251.78
2023-12-24T04:45:07.744Z,99250.88
2023-12-24T04:47:34.545Z,99239.09
2023-12-24T04:50:01.520Z,99227.63
2023-12-24T04:52:28.648Z,99245.44
2023-12-24T04:54:55.290Z,99236.00
2023-12-24T04:57:22.112Z,99227.00
2023-12-24T04:59:48.827Z,99241.44
2023-12-24T05:02:15.583Z,99236.16
2023-12-24T05:04:44.285Z,99237.25
2023-12-24T05:07:11.110Z,99230.59
2023-12-24T05:09:39.690Z,99226.53
2023-12-24T05:12:06.654Z,99219.75
2023-12-24T05:14:34.690Z,99220.50
2023-12-24T05:17:01.765Z,99226.69
2023-12-24T05:19:28.539Z,99222.38
2023-12-24T05:21:55.573Z,99226.63
2023-12-24T05:24:22.316Z,99216.00
2023-12-24T05:26:49.028Z,99213.88
2023-12-24T05:29:15.762Z,99214.31
2023-12-24T05:31:42.746Z,99211.84
2023-12-24T05:34:09.844Z,99204.44
2023-12-24T05:36:37.114Z,99212.16
2023-12-24T05:39:04.941Z,99220.31
2023-12-24T05:41:33.683Z,99203.53
2023-12-24T05:44:00.580Z,99212.91
2023-12-24T05:46:27.364Z,99210.28
2023-12-24T05:48:54.076Z,99202.84
2023-12-24T05:51:20.937Z,99213.38
2023-12-24T05:53:47.585Z,99207.19
2023-12-24T05:56:14.309Z,99202.97
2023-12-24T05:58:41.026Z,99200.44
2023-12-24T06:01:07.806Z,99200.22
2023-12-24T06:03:34.599Z,99212.59
2023-12-24T06:06:01.487Z,99206.41
2023-12-24T06:08:28.269Z,99215.25
2023-12-24T06:10:55.010Z,99216.75
2023-12-24T06:13:21.676Z,99226.81
2023-12-24T06:15:48.358Z,99223.44
2023-12-24T06:18:15.206Z,99218.31
2023-12-24T06:20:42.192Z,99221.28
2023-12-24T06:23:08.894Z,99214.91
2023-12-24T06:25:37.875Z,99216.94
2023-12-24T06:28:05.720Z,99218.84
2023-12-24T06:30:32.559Z,99214.25
2023-12-24T06:32:59.347Z,99205.63
2023-12-24T06:35:26.455Z,99203.75
2023-12-24T06:37:53.214Z,99207.25
2023-12-24T06:40:19.940Z,99209.91
2023-12-24T06:42:46.634Z,99214.16
2023-12-24T06:45:13.337Z,99198.31
2023-12-24T06:47:40.883Z,99198.13
2023-12-24T06:50:08.044Z,99196.59
2023-12-24T06:52:34.867Z,99193.91
2023-12-24T06:55:01.652Z,99186.78
2023-12-24T06:57:28.415Z,99194.22
2023-12-24T06:59:55.219Z,99190.72
2023-12-24T07:02:22.018Z,99184.66
2023-12-24T07:04:48.668Z,99184.03
2023-12-24T07:07:15.454Z,99184.19
2023-12-24T07:09:42.103Z,99190.53
2023-12-24T07:12:09.071Z,99185.91
2023-12-24T07:14:35.729Z,99190.53
2023-12-24T07:17:02.576Z,99198.66
2023-12-24T07:19:29.551Z,99183.56
2023-12-24T07:21:56.313Z,99181.00
2023-12-24T07:24:22.935Z,99176.91
2023-12-24T07:26:49.684Z,99182.88
2023-12-24T07:29:16.456Z,99176.41
2023-12-24T07:31:43.319Z,99168.09
2023-12-24T07:34:10.062Z,99160.47
2023-12-24T07:36:36.851Z,99166.41
2023-12-24T07:39:04.679Z,99171.13
2023-12-24T07:41:32.602Z,99168.94
2023-12-24T07:44:00.768Z,99169.28
2023-12-24T07:46:27.529Z,99167.38
2023-12-24T07:48:54.318Z,99160.88
2023-12-24T07:51:21.113Z,99164.59
2023-12-24T07:53:47.751Z,99156.69
2023-12-24T07:56:14.531Z,99151.59
2023-12-24T07:58:41.230Z,99152.28
2023-12-24T08:01:08.031Z,99165.81
2023-12-24T08:03:34.825Z,99168.19
2023-12-24T08:06:01.798Z,99156.38
2023-12-24T08:08:28.636Z,99152.28
2023-12-24T08:10:56.129Z,99149.41
2023-12-24T08:13:24.860Z,99138.97
2023-12-24T08:15:51.525Z,99146.78
2023-12-24T08:18:18.551Z,99130.84
2023-12-24T08:20:45.444Z,99143.88
2023-12-24T08:23:12.358Z,99138.84
2023-12-24T08:25:39.114Z,99131.19
2023-12-24T08:28:07.414Z,99140.78
2023-12-24T08:30:34.223Z,99141.38
2023-12-24T08:33:01.093Z,99141.22
2023-12-24T08:35:28.116Z,99142.75
2023-12-24T08:37:54.896Z,99144.25
2023-12-24T08:40:23.701Z,99140.44
2023-12-24T08:42:50.763Z,99137.47
2023-12-24T08:45:17.569Z,99145.97
2023-12-24T08:47:44.488Z,99147.44
2023-12-24T08:50:11.253Z,99147.16
2023-12-24T08:52:38.031Z,99151.28
2023-12-24T08:55:05.077Z,99148.16
2023-12-24T08:57:31.772Z,99157.53
2023-12-24T08:59:58.386Z,99167.84
2023-12-24T09:02:25.228Z,99157.19
2023-12-24T09:04:51.885Z,99153.16
2023-12-24T09:07:18.578Z,99139.06
2023-12-24T09:09:45.224Z,99141.09
2023-12-24T09:12:12.668Z,99127.00
2023-12-24T09:14:39.311Z,99123.41
2023-12-24T09:17:06.142Z,99121.19
2023-12-24T09:19:32.836Z,99124.56
2023-12-24T09:21:59.631Z,99123.59
2023-12-24T09:24:26.261Z,99126.06
2023-12-24T09:26:52.965Z,99142.59
2023-12-24T09:29:23.305Z,99131.84
2023-12-24T09:31:50.320Z,99129.47
2023-12-24T09:34:17.027Z,99135.22
2023-12-24T09:36:43.919Z,99131.53
2023-12-24T09:39:10.911Z,99120.63
2023-12-24T09:41:38.786Z,99130.22
2023-12-24T09:44:08.227Z,99124.41
2023-12-24T09:46:35.204Z,99129.13
2023-12-24T09:49:01.968Z,99118.91
2023-12-24T09:51:30.343Z,99123.44
2023-12-24T09:53:57.400Z,99127.59
2023-12-24T09:56:24.240Z,99130.56
2023-12-24T09:58:53.507Z,99140.81
2023-12-24T10:01:20.940Z,99135.44
2023-12-24T10:03:47.670Z,99112.34
2023-12-24T10:06:16.210Z,99112.97
2023-12-24T10:08:43.186Z,99123.84
2023-12-24T10:11:13.265Z,99112.50
2023-12-24T10:13:40.123Z,99124.56
2023-12-24T10:16:07.089Z,99133.25
2023-12-24T10:18:34.291Z,99126.25
2023-12-24T10:21:09.488Z,99124.88
2023-12-24T10:23:37.143Z,99115.16
2023-12-24T10:26:08.435Z,99123.25
2023-12-24T10:28:35.233Z,99117.69
2023-12-24T10:31:11.222Z,99116.66
2023-12-24T10:33:38.687Z,99110.44
2023-12-24T10:36:05.920Z,99114.59
2023-12-24T10:38:32.824Z,99109.16
2023-12-24T10:40:59.590Z,99098.94
2023-12-24T10:43:26.314Z,99107.81
2023-12-24T10:45:53.048Z,99098.75
2023-12-24T10:48:20.468Z,99090.00
2023-12-24T10:50:47.712Z,99084.16
2023-12-24T10:53:14.714Z,99091.97
2023-12-24T10:55:45.849Z,99085.38
2023-12-24T10:58:28.361Z,99075.56
2023-12-24T11:01:03.351Z,99073.28
2023-12-24T11:03:46.098Z,99077.16
2023-12-24T11:06:32.775Z,99077.63
2023-12-24T11:08:59.515Z,99071.78
2023-12-24T11:11:26.259Z,99070.56
2023-12-24T11:13:53.018Z,99078.56
2023-12-24T11:16:39.596Z,99072.25
2023-12-24T11:19:06.500Z,99077.06
2023-12-24T11:21:53.158Z,99075.56
2023-12-24T11:24:23.035Z,99071.38
2023-12-24T11:26:50.963Z,99045.53
2023-12-24T11:29:40.909Z,99045.06
2023-12-24T11:32:34.945Z,99044.97
2023-12-24T11:35:02.192Z,99022.00
2023-12-24T11:37:29.160Z,99027.59
2023-12-24T11:40:08.913Z,99036.25
2023-12-24T11:42:54.040Z,99023.81
2023-12-24T11:45:26.959Z,99011.88
2023-12-24T11:47:54.346Z,99002.72
2023-12-24T11:50:21.714Z,99008.59
2023-12-24T11:52:49.398Z,99007.03
2023-12-24T11:55:22.490Z,98997.25
2023-12-24T11:57:50.573Z,98989.41
2023-12-24T12:00:27.420Z,98994.53
2023-12-24T12:02:59.860Z,98997.88
2023-12-24T12:05:27.588Z,98992.16
2023-12-24T12:07:54.523Z,98986.06
2023-12-24T12:10:21.659Z,98969.53
2023-12-24T12:12:48.448Z,98975.91
2023-12-24T12:15:15.781Z,98992.91
2023-12-24T12:17:42.588Z,98988.88
2023-12-24T12:20:09.661Z,98981.59
2023-12-24T12:22:36.356Z,98985.50
2023-12-24T12:25:03.956Z,98977.19
2023-12-24T12:27:30.663Z,98978.63
2023-12-24T12:29:57.353Z,98961.94
2023-12-24T12:32:24.202Z,98966.78
2023-12-24T12:34:51.037Z,98972.69
2023-12-24T12:37:17.731Z,98970.81
2023-12-24T12:39:44.409Z,98964.13
2023-12-24T12:42:12.012Z,98964.84
2023-12-24T12:44:38.798Z,98968.69
2023-12-24T12:47:05.663Z,98962.56
2023-12-24T12:49:33.008Z,98978.19
2023-12-24T12:51:59.673Z,98974.19
2023-12-24T12:54:26.354Z,98961.94
2023-12-24T12:56:54.353Z,98967.63
2023-12-24T12:59:24.676Z,98958.94
2023-12-24T13:01:51.519Z,98954.88
2023-12-24T13:04:25.005Z,98962.75
2023-12-24T13:06:58.627Z,98952.78
2023-12-24T13:09:25.358Z,98948.50
2023-12-24T13:11:52.652Z,98950.28
2023-12-24T13:14:19.455Z,98965.66
2023-12-24T13:16:46.199Z,98962.31
2023-12-24T13:19:19.905Z,98951.97
2023-12-24T13:21:47.955Z,98950.25
2023-12-24T13:24:16.873Z,98944.53
2023-12-24T13:26:43.595Z,98938.53
2023-12-24T13:29:10.323Z,98922.13
2023-12-24T13:31:37.529Z,98909.47
2023-12-24T13:34:04.278Z,98907.13
2023-12-24T13:36:31.101Z,98902.88
2023-12-24T13:38:59.585Z,98891.72
2023-12-24T13:41:26.351Z,98890.44
2023-12-24T13:43:53.083Z,98900.59
2023-12-24T13:46:21.446Z,98918.75
2023-12-24T13:48:48.481Z,98902.06
2023-12-24T13:51:18.573Z,98894.69
2023-12-24T13:53:45.711Z,98896.47
2023-12-24T13:56:12.465Z,98898.91
2023-12-24T13:58:39.163Z,98905.97
2023-12-24T14:01:05.893Z,98891.91
2023-12-24T14:03:32.616Z,98905.97
2023-12-24T14:06:00.242Z,98889.16
2023-12-24T14:08:28.829Z,98883.66
2023-12-24T14:10:56.116Z,98885.78
2023-12-24T14:13:22.953Z,98891.06
2023-12-24T14:15:49.690Z,98877.31
2023-12-24T14:18:16.692Z,98880.91
2023-12-24T14:20:44.720Z,98883.44
2023-12-24T14:23:11.516Z,98864.63
2023-12-24T14:25:38.291Z,98872.84
2023-12-24T14:28:05.294Z,98866.97
2023-12-24T14:30:32.213Z,98862.59
2023-12-24T14:32:59.421Z,98867.69
2023-12-24T14:35:26.341Z,98862.50
2023-12-24T14:37:53.244Z,98852.47
2023-12-24T14:40:21.340Z,98860.75
2023-12-24T14:42:48.095Z,98873.06
2023-12-24T14:45:14.941Z,98872.78
2023-12-24T14:47:43.251Z,98865.03
2023-12-24T14:50:10.295Z,98856.28
2023-12-24T14:52:37.141Z,98858.31
2023-12-24T14:55:04.097Z,98860.63
2023-12-24T14:57:32.414Z,98869.91
2023-12-24T15:00:00.271Z,98882.38
2023-12-24T15:02:29.580Z,98870.13
2023-12-24T15:04:56.969Z,98875.41
2023-12-24T15:07:25.260Z,98865.06
2023-12-24T15:09:52.139Z,98844.13
2023-12-24T15:12:18.967Z,98840.94
2023-12-24T15:14:45.937Z,98849.16
2023-12-24T15:17:15.716Z,98835.75
2023-12-24T15:19:43.744Z,98847.69
2023-12-24T15:22:10.567Z,98848.75
2023-12-24T15:24:37.357Z,98838.00
2023-12-24T15:27:04.251Z,98849.41
2023-12-24T15:29:31.081Z,98853.44
2023-12-24T15:31:57.834Z,98828.00
2023-12-24T15:34:24.914Z,98835.47
2023-12-24T15:36:51.813Z,98830.78
2023-12-24T15:39:18.616Z,98842.44
2023-12-24T15:41:45.372Z,98838.19
2023-12-24T15:44:12.113Z,98828.59
2023-12-24T15:46:38.876Z,98832.06
2023-12-24T15:49:05.941Z,98833.31
2023-12-24T15:51:36.041Z,98825.72
2023-12-24T15:54:04.879Z,98842.44
2023-12-24T15:56:31.908Z,98825.72
2023-12-24T15:58:58.841Z,98822.31
2023-12-24T16:01:25.621Z,98828.25
2023-12-24T16:03:52.814Z,98827.41
2023-12-24T16:06:19.937Z,98832.91
2023-12-24T16:08:47.034Z,98821.50
2023-12-24T16:11:13.840Z,98819.78
2023-12-24T16:13:40.567Z,98823.81
2023-12-24T16:16:07.312Z,98819.78
2023-12-24T16:18:34.222Z,98809.84
2023-12-24T16:21:01.135Z,98805.50
2023-12-24T16:23:27.927Z,98811.25
2023-12-24T16:25:54.630Z,98810.59
2023-12-24T16:28:21.396Z,98810.25
2023-12-24T16:30:48.219Z,98817.25
2023-12-24T16:33:15.083Z,98798.84
2023-12-24T16:35:42.352Z,98797.81
2023-12-24T16:38:09.094Z,98798.72
2023-12-24T16:40:35.817Z,98806.66
2023-12-24T16:43:02.615Z,98804.97
2023-12-24T16:45:29.361Z,98809.63
2023-12-24T16:47:56.307Z,98807.09
2023-12-24T16:50:23.034Z,98813.25
2023-12-24T16:52:49.836Z,98816.06
2023-12-24T16:55:16.687Z,98817.44
2023-12-24T16:57:43.610Z,98819.44
2023-12-24T17:00:10.627Z,98825.69
2023-12-24T17:02:38.273Z,98836.03
2023-12-24T17:05:05.236Z,98828.88
2023-12-24T17:07:32.141Z,98832.66
2023-12-24T17:10:05.664Z,98847.06
2023-12-24T17:12:34.393Z,98853.22
2023-12-24T17:15:03.488Z,98853.94
2023-12-24T17:17:30.430Z,98847.69
2023-12-24T17:19:57.281Z,98853.22
2023-12-24T17:22:26.094Z,98851.91
2023-12-24T17:24:59.509Z,98866.22
2023-12-24T17:27:31.781Z,98853.91
2023-12-24T17:29:58.604Z,98853.38
2023-12-24T17:32:25.794Z,98843.84
2023-12-24T17:34:52.621Z,98837.53
2023-12-24T17:37:19.595Z,98843.75
2023-12-24T17:39:46.282Z,98826.69
2023-12-24T17:42:12.943Z,98785.66
2023-12-24T17:44:41.119Z,98742.53
2023-12-24T17:47:10.279Z,98818.03
2023-12-24T17:49:37.405Z,98814.47
2023-12-24T17:52:05.481Z,98810.63
2023-12-24T17:54:34.872Z,98791.50
2023-12-24T17:57:01.869Z,98792.63
2023-12-24T17:59:28.890Z,98774.16
2023-12-24T18:01:55.768Z,98798.13
2023-12-24T18:04:22.576Z,98801.28
2023-12-24T18:06:49.446Z,98803.19
2023-12-24T18:09:16.246Z,98790.69
2023-12-24T18:11:42.946Z,98805.47
2023-12-24T18:14:09.851Z,98811.66
2023-12-24T18:16:36.759Z,98815.53
2023-12-24T18:19:03.997Z,98803.00
2023-12-24T18:21:31.043Z,98784.97
2023-12-24T18:23:58.012Z,98778.63
2023-12-24T18:26:25.027Z,98779.16
2023-12-24T18:28:52.728Z,98765.72
2023-12-24T18:31:20.506Z,98777.78
2023-12-24T18:33:47.280Z,98768.16
2023-12-24T18:36:17.356Z,98778.22
2023-12-24T18:38:47.904Z,98774.38
2023-12-24T18:41:22.363Z,98762.38
2023-12-24T18:43:49.573Z,98761.94
2023-12-24T18:46:19.925Z,98773.38
2023-12-24T18:48:47.338Z,98761.91
2023-12-24T18:51:14.975Z,98770.31
2023-12-24T18:53:42.233Z,98784.13
2023-12-24T18:56:09.507Z,98776.63
2023-12-24T18:58:37.420Z,98778.88
2023-12-24T19:01:04.274Z,98765.03
2023-12-24T19:03:31.089Z,98772.84
2023-12-24T19:05:57.866Z,98778.38
2023-12-24T19:08:24.669Z,98794.97
2023-12-24T19:10:51.332Z,98782.72
2023-12-24T19:13:18.151Z,98794.53
2023-12-24T19:15:44.827Z,98778.09
2023-12-24T19:18:11.628Z,98797.25
2023-12-24T19:20:38.361Z,98807.78
2023-12-24T19:23:05.109Z,98803.94
2023-12-24T19:25:31.779Z,98801.94
2023-12-24T19:27:58.510Z,98800.47
2023-12-24T19:30:25.169Z,98808.03
2023-12-24T19:32:52.419Z,98803.94
2023-12-24T19:35:19.296Z,98797.47
2023-12-24T19:37:46.045Z,98796.97
2023-12-24T19:40:12.761Z,98800.84
2023-12-24T19:42:39.783Z,98776.38
2023-12-24T19:45:06.681Z,98778.50
2023-12-24T19:47:33.512Z,98801.81
2023-12-24T19:50:00.320Z,98804.44
2023-12-24T19:52:36.085Z,98786.88
2023-12-24T19:55:07.689Z,98803.78
2023-12-24T19:57:34.470Z,98801.09
2023-12-24T20:00:01.170Z,98812.63
2023-12-24T20:02:28.309Z,98803.50
2023-12-24T20:04:55.045Z,98794.50
2023-12-24T20:07:21.781Z,98787.91
2023-12-24T20:09:48.578Z,98802.75
2023-12-24T20:12:15.382Z,98792.88
2023-12-24T20:14:42.197Z,98800.97
2023-12-24T20:17:08.982Z,98798.38
2023-12-24T20:19:35.908Z,98806.84
2023-12-24T20:22:02.678Z,98807.47
2023-12-24T20:24:29.435Z,98803.28
2023-12-24T20:26:56.266Z,98790.94
2023-12-24T20:29:23.081Z,98798.94
2023-12-24T20:31:49.772Z,98798.59
2023-12-24T20:34:16.730Z,98809.03
2023-12-24T20:36:44.183Z,98814.97
2023-12-24T20:39:11.522Z,98819.94
2023-12-24T20:41:42.327Z,98831.97
2023-12-24T20:44:09.031Z,98821.38
2023-12-24T20:46:35.708Z,98823.34
2023-12-24T20:49:04.076Z,98826.13
2023-12-24T20:51:31.121Z,98803.97
2023-12-24T20:53:57.838Z,98814.13
2023-12-24T20:56:24.850Z,98832.81
2023-12-24T20:58:51.606Z,98831.91
2023-12-24T21:01:21.598Z,98828.66
2023-12-24T21:03:48.896Z,98830.03
2023-12-24T21:06:15.954Z,98832.59
2023-12-24T21:08:42.707Z,98829.34
2023-12-24T21:11:09.459Z,98822.78
2023-12-24T21:13:36.131Z,98823.53
2023-12-24T21:16:03.306Z,98821.47
2023-12-24T21:18:30.070Z,98815.16
2023-12-24T21:20:59.746Z,98826.22
2023-12-24T21:23:26.749Z,98825.53
2023-12-24T21:25:53.513Z,98815.22
2023-12-24T21:28:20.244Z,98825.75
2023-12-24T21:30:46.959Z,98834.75
2023-12-24T21:33:13.822Z,98836.66
2023-12-24T21:35:40.542Z,98832.06
2023-12-24T21:38:07.355Z,98840.00
2023-12-24T21:40:33.974Z,98855.31
2023-12-24T21:43:00.744Z,98835.22
2023-12-24T21:45:27.377Z,98845.53
2023-12-24T21:47:54.529Z,98851.56
2023-12-24T21:50:21.367Z,98852.53
2023-12-24T21:52:48.194Z,98858.59
2023-12-24T21:55:14.913Z,98851.66
2023-12-24T21:57:41.626Z,98858.16
2023-12-24T22:00:11.408Z,98869.38
2023-12-24T22:02:38.329Z,98858.41
2023-12-24T22:05:05.108Z,98879.50
2023-12-24T22:07:31.915Z,98895.81
2023-12-24T22:09:58.575Z,98897.28
2023-12-24T22:12:25.354Z,98893.97
2023-12-24T22:14:52.148Z,98904.13
2023-12-24T22:17:18.998Z,98891.22
2023-12-24T22:19:45.720Z,98884.63
2023-12-24T22:22:13.039Z,98888.47
2023-12-24T22:24:39.961Z,98911.75
2023-12-24T22:27:06.668Z,98916.19
2023-12-24T22:29:36.816Z,98909.78
2023-12-24T22:32:03.675Z,98920.94
2023-12-24T22:34:30.409Z,98934.41
2023-12-24T22:36:57.164Z,98972.53
2023-12-24T22:39:23.842Z,98966.06
2023-12-24T22:41:50.698Z,98971.66
2023-12-24T22:44:17.442Z,98971.91
2023-12-24T22:46:44.766Z,98972.50
2023-12-24T22:49:11.563Z,98979.25
2023-12-24T22:51:38.303Z,98981.63
2023-12-24T22:54:04.944Z,98979.72
2023-12-24T22:56:31.772Z,98980.97
2023-12-24T22:58:58.428Z,98966.66
2023-12-24T23:01:25.178Z,98959.97
2023-12-24T23:03:51.938Z,98972.72
2023-12-24T23:06:20.534Z,98980.97
2023-12-24T23:08:47.284Z,98980.72
2023-12-24T23:11:14.082Z,98969.00
2023-12-24T23:13:40.858Z,98975.66
2023-12-24T23:16:07.732Z,98969.56
2023-12-24T23:18:34.615Z,98962.13
2023-12-24T23:21:01.607Z,98960.75
2023-12-24T23:23:28.461Z,98959.78
2023-12-24T23:25:55.222Z,98949.44
2023-12-24T23:28:21.908Z,98949.44
2023-12-24T23:30:48.659Z,98956.72
2023-12-24T23:33:15.446Z,98952.06
2023-12-24T23:35:45.404Z,98925.38
2023-12-24T23:38:14.411Z,98940.66
2023-12-24T23:40:41.124Z,98925.50
2023-12-24T23:43:07.810Z,98924.84
2023-12-24T23:45:34.434Z,98926.13
2023-12-24T23:48:02.506Z,98916.13
2023-12-24T23:50:31.552Z,98912.13
2023-12-24T23:52:58.377Z,98918.47
2023-12-24T23:55:25.006Z,98906.41
2023-12-24T23:57:51.939Z,98902.41
